sensor_id;sensor_type;location;lat;lon;timestamp;P1;durP1;ratioP1;P2;durP2;ratioP2
18881;SDS011;9573;50.948;11.600;2023-11-19T00:00:06;4.13;;;1.77;;
18881;SDS011;9573;50.948;11.600;2023-11-19T00:02:37;2.03;;;1.50;;
18881;SDS011;9573;50.948;11.600;2023-11-19T00:05:04;3.17;;;1.80;;
18881;SDS011;9573;50.948;11.600;2023-11-19T00:07:34;2.27;;;1.80;;
18881;SDS011;9573;50.948;11.600;2023-11-19T00:10:02;2.53;;;1.70;;
18881;SDS011;9573;50.948;11.600;2023-11-19T00:12:32;4.53;;;1.90;;
18881;SDS011;9573;50.948;11.600;2023-11-19T00:15:00;2.80;;;1.33;;
18881;SDS011;9573;50.948;11.600;2023-11-19T00:17:27;3.27;;;2.00;;
18881;SDS011;9573;50.948;11.600;2023-11-19T00:19:54;1.47;;;1.37;;
18881;SDS011;9573;50.948;11.600;2023-11-19T00:22:21;2.20;;;1.43;;
18881;SDS011;9573;50.948;11.600;2023-11-19T00:24:49;2.13;;;1.47;;
18881;SDS011;9573;50.948;11.600;2023-11-19T00:27:16;3.87;;;1.77;;
18881;SDS011;9573;50.948;11.600;2023-11-19T00:29:43;2.83;;;1.37;;
18881;SDS011;9573;50.948;11.600;2023-11-19T00:32:12;3.60;;;1.60;;
18881;SDS011;9573;50.948;11.600;2023-11-19T00:34:40;1.67;;;1.30;;
18881;SDS011;9573;50.948;11.600;2023-11-19T00:37:09;1.87;;;1.40;;
18881;SDS011;9573;50.948;11.600;2023-11-19T00:39:37;1.40;;;1.30;;
18881;SDS011;9573;50.948;11.600;2023-11-19T00:42:04;1.67;;;1.03;;
18881;SDS011;9573;50.948;11.600;2023-11-19T00:44:31;1.47;;;1.23;;
18881;SDS011;9573;50.948;11.600;2023-11-19T00:46:58;1.40;;;1.30;;
18881;SDS011;9573;50.948;11.600;2023-11-19T00:49:27;3.43;;;1.20;;
18881;SDS011;9573;50.948;11.600;2023-11-19T00:51:54;1.87;;;0.87;;
18881;SDS011;9573;50.948;11.600;2023-11-19T00:54:21;1.97;;;1.40;;
18881;SDS011;9573;50.948;11.600;2023-11-19T00:56:50;2.03;;;1.10;;
18881;SDS011;9573;50.948;11.600;2023-11-19T00:59:18;1.17;;;1.03;;
18881;SDS011;9573;50.948;11.600;2023-11-19T01:01:45;1.20;;;0.90;;
18881;SDS011;9573;50.948;11.600;2023-11-19T01:04:13;1.07;;;0.80;;
18881;SDS011;9573;50.948;11.600;2023-11-19T01:06:41;1.23;;;0.90;;
18881;SDS011;9573;50.948;11.600;2023-11-19T01:09:08;0.70;;;0.70;;
18881;SDS011;9573;50.948;11.600;2023-11-19T01:11:35;0.40;;;0.40;;
18881;SDS011;9573;50.948;11.600;2023-11-19T01:14:03;1.90;;;1.27;;
18881;SDS011;9573;50.948;11.600;2023-11-19T01:16:30;1.10;;;0.83;;
18881;SDS011;9573;50.948;11.600;2023-11-19T01:18:57;1.27;;;0.60;;
18881;SDS011;9573;50.948;11.600;2023-11-19T01:21:29;0.83;;;0.83;;
18881;SDS011;9573;50.948;11.600;2023-11-19T01:23:58;0.90;;;0.90;;
18881;SDS011;9573;50.948;11.600;2023-11-19T01:26:26;0.57;;;0.57;;
18881;SDS011;9573;50.948;11.600;2023-11-19T01:28:53;0.50;;;0.50;;
18881;SDS011;9573;50.948;11.600;2023-11-19T01:31:20;2.00;;;0.60;;
18881;SDS011;9573;50.948;11.600;2023-11-19T01:33:47;0.80;;;0.70;;
18881;SDS011;9573;50.948;11.600;2023-11-19T01:36:14;2.03;;;1.00;;
18881;SDS011;9573;50.948;11.600;2023-11-19T01:38:41;1.43;;;0.70;;
18881;SDS011;9573;50.948;11.600;2023-11-19T01:41:10;1.53;;;0.90;;
18881;SDS011;9573;50.948;11.600;2023-11-19T01:43:38;1.00;;;0.60;;
18881;SDS011;9573;50.948;11.600;2023-11-19T01:46:07;0.50;;;0.50;;
18881;SDS011;9573;50.948;11.600;2023-11-19T01:48:36;0.63;;;0.60;;
18881;SDS011;9573;50.948;11.600;2023-11-19T01:51:08;1.63;;;0.80;;
18881;SDS011;9573;50.948;11.600;2023-11-19T01:53:35;2.10;;;0.80;;
18881;SDS011;9573;50.948;11.600;2023-11-19T01:56:05;0.60;;;0.60;;
18881;SDS011;9573;50.948;11.600;2023-11-19T01:58:36;0.70;;;0.60;;
18881;SDS011;9573;50.948;11.600;2023-11-19T02:01:04;1.47;;;0.70;;
18881;SDS011;9573;50.948;11.600;2023-11-19T02:03:32;0.60;;;0.60;;
18881;SDS011;9573;50.948;11.600;2023-11-19T02:06:00;2.57;;;1.00;;
18881;SDS011;9573;50.948;11.600;2023-11-19T02:08:28;0.80;;;0.67;;
18881;SDS011;9573;50.948;11.600;2023-11-19T02:10:56;0.50;;;0.50;;
18881;SDS011;9573;50.948;11.600;2023-11-19T02:13:23;0.77;;;0.77;;
18881;SDS011;9573;50.948;11.600;2023-11-19T02:15:53;1.80;;;0.87;;
18881;SDS011;9573;50.948;11.600;2023-11-19T02:18:20;1.17;;;0.80;;
18881;SDS011;9573;50.948;11.600;2023-11-19T02:20:49;0.97;;;0.57;;
18881;SDS011;9573;50.948;11.600;2023-11-19T02:23:17;0.60;;;0.60;;
18881;SDS011;9573;50.948;11.600;2023-11-19T02:25:47;1.00;;;0.53;;
18881;SDS011;9573;50.948;11.600;2023-11-19T02:28:27;0.33;;;0.33;;
18881;SDS011;9573;50.948;11.600;2023-11-19T02:30:54;0.47;;;0.47;;
18881;SDS011;9573;50.948;11.600;2023-11-19T02:33:21;1.20;;;0.80;;
18881;SDS011;9573;50.948;11.600;2023-11-19T02:35:49;0.50;;;0.50;;
18881;SDS011;9573;50.948;11.600;2023-11-19T02:38:17;1.03;;;0.53;;
18881;SDS011;9573;50.948;11.600;2023-11-19T02:40:44;1.00;;;0.90;;
18881;SDS011;9573;50.948;11.600;2023-11-19T02:43:11;2.10;;;0.97;;
18881;SDS011;9573;50.948;11.600;2023-11-19T02:45:39;0.50;;;0.50;;
18881;SDS011;9573;50.948;11.600;2023-11-19T02:48:07;0.20;;;0.20;;
18881;SDS011;9573;50.948;11.600;2023-11-19T02:50:35;2.87;;;0.87;;
18881;SDS011;9573;50.948;11.600;2023-11-19T02:53:02;1.30;;;0.90;;
18881;SDS011;9573;50.948;11.600;2023-11-19T02:55:29;0.83;;;0.60;;
18881;SDS011;9573;50.948;11.600;2023-11-19T02:58:01;1.27;;;0.47;;
18881;SDS011;9573;50.948;11.600;2023-11-19T03:00:33;1.17;;;0.80;;
18881;SDS011;9573;50.948;11.600;2023-11-19T03:03:03;1.10;;;0.70;;
18881;SDS011;9573;50.948;11.600;2023-11-19T03:05:42;0.63;;;0.60;;
18881;SDS011;9573;50.948;11.600;2023-11-19T03:08:11;2.60;;;0.90;;
18881;SDS011;9573;50.948;11.600;2023-11-19T03:10:38;0.60;;;0.60;;
18881;SDS011;9573;50.948;11.600;2023-11-19T03:13:05;0.83;;;0.80;;
18881;SDS011;9573;50.948;11.600;2023-11-19T03:15:40;3.03;;;1.00;;
18881;SDS011;9573;50.948;11.600;2023-11-19T03:18:08;0.50;;;0.50;;
18881;SDS011;9573;50.948;11.600;2023-11-19T03:20:35;2.20;;;1.00;;
18881;SDS011;9573;50.948;11.600;2023-11-19T03:23:02;1.80;;;0.60;;
18881;SDS011;9573;50.948;11.600;2023-11-19T03:25:31;2.27;;;0.50;;
18881;SDS011;9573;50.948;11.600;2023-11-19T03:27:59;1.67;;;0.70;;
18881;SDS011;9573;50.948;11.600;2023-11-19T03:30:27;1.23;;;0.60;;
18881;SDS011;9573;50.948;11.600;2023-11-19T03:32:54;0.50;;;0.50;;
18881;SDS011;9573;50.948;11.600;2023-11-19T03:35:23;0.67;;;0.50;;
18881;SDS011;9573;50.948;11.600;2023-11-19T03:37:51;2.13;;;0.87;;
18881;SDS011;9573;50.948;11.600;2023-11-19T03:40:18;2.73;;;0.50;;
18881;SDS011;9573;50.948;11.600;2023-11-19T03:42:45;0.63;;;0.63;;
18881;SDS011;9573;50.948;11.600;2023-11-19T03:45:12;2.47;;;0.70;;
18881;SDS011;9573;50.948;11.600;2023-11-19T03:47:40;0.70;;;0.67;;
18881;SDS011;9573;50.948;11.600;2023-11-19T03:50:08;1.30;;;0.97;;
18881;SDS011;9573;50.948;11.600;2023-11-19T03:52:36;0.63;;;0.60;;
18881;SDS011;9573;50.948;11.600;2023-11-19T03:55:04;0.60;;;0.60;;
18881;SDS011;9573;50.948;11.600;2023-11-19T03:57:33;0.77;;;0.67;;
18881;SDS011;9573;50.948;11.600;2023-11-19T04:00:00;0.40;;;0.40;;
18881;SDS011;9573;50.948;11.600;2023-11-19T04:02:33;0.30;;;0.30;;
18881;SDS011;9573;50.948;11.600;2023-11-19T04:05:00;0.50;;;0.50;;
18881;SDS011;9573;50.948;11.600;2023-11-19T04:07:28;0.50;;;0.50;;
18881;SDS011;9573;50.948;11.600;2023-11-19T04:09:56;1.60;;;0.73;;
18881;SDS011;9573;50.948;11.600;2023-11-19T04:12:23;1.30;;;0.60;;
18881;SDS011;9573;50.948;11.600;2023-11-19T04:14:51;0.73;;;0.70;;
18881;SDS011;9573;50.948;11.600;2023-11-19T04:17:18;0.30;;;0.30;;
18881;SDS011;9573;50.948;11.600;2023-11-19T04:19:45;0.90;;;0.70;;
18881;SDS011;9573;50.948;11.600;2023-11-19T04:22:12;2.73;;;0.90;;
18881;SDS011;9573;50.948;11.600;2023-11-19T04:24:39;1.20;;;0.50;;
18881;SDS011;9573;50.948;11.600;2023-11-19T04:27:10;0.60;;;0.60;;
18881;SDS011;9573;50.948;11.600;2023-11-19T04:29:37;1.57;;;0.70;;
18881;SDS011;9573;50.948;11.600;2023-11-19T04:32:04;0.80;;;0.80;;
18881;SDS011;9573;50.948;11.600;2023-11-19T04:34:33;1.13;;;0.57;;
18881;SDS011;9573;50.948;11.600;2023-11-19T04:37:00;0.93;;;0.60;;
18881;SDS011;9573;50.948;11.600;2023-11-19T04:39:28;0.63;;;0.63;;
18881;SDS011;9573;50.948;11.600;2023-11-19T04:41:55;0.57;;;0.47;;
18881;SDS011;9573;50.948;11.600;2023-11-19T04:44:24;0.70;;;0.70;;
18881;SDS011;9573;50.948;11.600;2023-11-19T04:46:51;0.70;;;0.60;;
18881;SDS011;9573;50.948;11.600;2023-11-19T04:49:18;0.60;;;0.60;;
18881;SDS011;9573;50.948;11.600;2023-11-19T04:51:45;0.80;;;0.80;;
18881;SDS011;9573;50.948;11.600;2023-11-19T04:54:12;0.67;;;0.50;;
18881;SDS011;9573;50.948;11.600;2023-11-19T04:56:39;0.60;;;0.60;;
18881;SDS011;9573;50.948;11.600;2023-11-19T04:59:06;1.70;;;0.60;;
18881;SDS011;9573;50.948;11.600;2023-11-19T05:01:35;1.13;;;0.87;;
18881;SDS011;9573;50.948;11.600;2023-11-19T05:04:02;1.00;;;0.90;;
18881;SDS011;9573;50.948;11.600;2023-11-19T05:06:29;0.80;;;0.80;;
18881;SDS011;9573;50.948;11.600;2023-11-19T05:08:57;1.03;;;0.70;;
18881;SDS011;9573;50.948;11.600;2023-11-19T05:11:29;0.90;;;0.90;;
18881;SDS011;9573;50.948;11.600;2023-11-19T05:13:56;1.53;;;1.20;;
18881;SDS011;9573;50.948;11.600;2023-11-19T05:16:24;0.93;;;0.93;;
18881;SDS011;9573;50.948;11.600;2023-11-19T05:18:53;1.23;;;1.13;;
18881;SDS011;9573;50.948;11.600;2023-11-19T05:21:20;0.90;;;0.90;;
18881;SDS011;9573;50.948;11.600;2023-11-19T05:23:47;2.00;;;0.97;;
18881;SDS011;9573;50.948;11.600;2023-11-19T05:26:17;1.03;;;0.93;;
18881;SDS011;9573;50.948;11.600;2023-11-19T05:28:45;1.20;;;0.70;;
18881;SDS011;9573;50.948;11.600;2023-11-19T05:31:13;5.37;;;2.07;;
18881;SDS011;9573;50.948;11.600;2023-11-19T05:33:40;1.00;;;0.87;;
18881;SDS011;9573;50.948;11.600;2023-11-19T05:36:10;1.63;;;0.80;;
18881;SDS011;9573;50.948;11.600;2023-11-19T05:38:38;1.10;;;0.93;;
18881;SDS011;9573;50.948;11.600;2023-11-19T05:41:05;1.80;;;0.73;;
18881;SDS011;9573;50.948;11.600;2023-11-19T05:43:33;0.77;;;0.77;;
18881;SDS011;9573;50.948;11.600;2023-11-19T05:46:00;2.07;;;1.70;;
18881;SDS011;9573;50.948;11.600;2023-11-19T05:48:28;15.03;;;4.80;;
18881;SDS011;9573;50.948;11.600;2023-11-19T05:50:55;8.30;;;4.20;;
18881;SDS011;9573;50.948;11.600;2023-11-19T05:53:23;4.83;;;2.50;;
18881;SDS011;9573;50.948;11.600;2023-11-19T05:55:50;1.83;;;1.33;;
18881;SDS011;9573;50.948;11.600;2023-11-19T05:58:22;1.00;;;0.73;;
18881;SDS011;9573;50.948;11.600;2023-11-19T06:00:51;0.63;;;0.40;;
18881;SDS011;9573;50.948;11.600;2023-11-19T06:03:18;13.03;;;5.10;;
18881;SDS011;9573;50.948;11.600;2023-11-19T06:05:46;5.53;;;3.00;;
18881;SDS011;9573;50.948;11.600;2023-11-19T06:08:14;6.23;;;2.80;;
18881;SDS011;9573;50.948;11.600;2023-11-19T06:10:47;1.77;;;1.67;;
18881;SDS011;9573;50.948;11.600;2023-11-19T06:13:16;1.30;;;1.20;;
18881;SDS011;9573;50.948;11.600;2023-11-19T06:15:43;1.00;;;0.90;;
18881;SDS011;9573;50.948;11.600;2023-11-19T06:18:11;1.00;;;1.00;;
18881;SDS011;9573;50.948;11.600;2023-11-19T06:20:39;4.37;;;1.40;;
18881;SDS011;9573;50.948;11.600;2023-11-19T06:23:09;1.03;;;0.93;;
18881;SDS011;9573;50.948;11.600;2023-11-19T06:25:37;0.90;;;0.90;;
18881;SDS011;9573;50.948;11.600;2023-11-19T06:28:05;0.70;;;0.67;;
18881;SDS011;9573;50.948;11.600;2023-11-19T06:30:32;2.10;;;0.80;;
18881;SDS011;9573;50.948;11.600;2023-11-19T06:33:01;0.87;;;0.87;;
18881;SDS011;9573;50.948;11.600;2023-11-19T06:35:30;1.60;;;1.20;;
18881;SDS011;9573;50.948;11.600;2023-11-19T06:38:01;0.70;;;0.70;;
18881;SDS011;9573;50.948;11.600;2023-11-19T06:40:29;1.47;;;0.80;;
18881;SDS011;9573;50.948;11.600;2023-11-19T06:42:56;1.07;;;0.87;;
18881;SDS011;9573;50.948;11.600;2023-11-19T06:45:25;2.30;;;0.80;;
18881;SDS011;9573;50.948;11.600;2023-11-19T06:48:00;0.80;;;0.80;;
18881;SDS011;9573;50.948;11.600;2023-11-19T06:50:32;0.80;;;0.80;;
18881;SDS011;9573;50.948;11.600;2023-11-19T06:52:59;1.50;;;1.33;;
18881;SDS011;9573;50.948;11.600;2023-11-19T06:55:27;2.10;;;1.50;;
18881;SDS011;9573;50.948;11.600;2023-11-19T06:57:54;2.53;;;0.93;;
18881;SDS011;9573;50.948;11.600;2023-11-19T07:00:27;12.60;;;3.30;;
18881;SDS011;9573;50.948;11.600;2023-11-19T07:02:54;2.03;;;1.10;;
18881;SDS011;9573;50.948;11.600;2023-11-19T07:05:21;8.77;;;2.80;;
18881;SDS011;9573;50.948;11.600;2023-11-19T07:07:49;11.83;;;3.33;;
18881;SDS011;9573;50.948;11.600;2023-11-19T07:10:16;3.73;;;1.93;;
18881;SDS011;9573;50.948;11.600;2023-11-19T07:12:45;3.77;;;1.73;;
18881;SDS011;9573;50.948;11.600;2023-11-19T07:15:12;6.47;;;2.80;;
18881;SDS011;9573;50.948;11.600;2023-11-19T07:17:40;4.90;;;2.33;;
18881;SDS011;9573;50.948;11.600;2023-11-19T07:20:09;2.57;;;2.00;;
18881;SDS011;9573;50.948;11.600;2023-11-19T07:22:40;6.67;;;2.53;;
18881;SDS011;9573;50.948;11.600;2023-11-19T07:25:15;9.30;;;2.93;;
18881;SDS011;9573;50.948;11.600;2023-11-19T07:27:42;10.20;;;3.43;;
18881;SDS011;9573;50.948;11.600;2023-11-19T07:30:12;10.53;;;4.10;;
18881;SDS011;9573;50.948;11.600;2023-11-19T07:32:41;7.03;;;3.30;;
18881;SDS011;9573;50.948;11.600;2023-11-19T07:35:08;11.97;;;4.10;;
18881;SDS011;9573;50.948;11.600;2023-11-19T07:37:35;11.63;;;4.10;;
18881;SDS011;9573;50.948;11.600;2023-11-19T07:40:02;29.08;;;10.52;;
18881;SDS011;9573;50.948;11.600;2023-11-19T07:42:31;13.53;;;5.83;;
18881;SDS011;9573;50.948;11.600;2023-11-19T07:44:58;8.07;;;4.00;;
18881;SDS011;9573;50.948;11.600;2023-11-19T07:47:25;9.40;;;3.97;;
18881;SDS011;9573;50.948;11.600;2023-11-19T07:49:55;9.77;;;4.00;;
18881;SDS011;9573;50.948;11.600;2023-11-19T07:52:22;8.83;;;2.90;;
18881;SDS011;9573;50.948;11.600;2023-11-19T07:54:51;7.37;;;3.23;;
18881;SDS011;9573;50.948;11.600;2023-11-19T07:57:19;8.70;;;3.30;;
18881;SDS011;9573;50.948;11.600;2023-11-19T07:59:46;8.07;;;3.20;;
18881;SDS011;9573;50.948;11.600;2023-11-19T08:02:13;6.43;;;2.70;;
18881;SDS011;9573;50.948;11.600;2023-11-19T08:04:40;7.60;;;3.10;;
18881;SDS011;9573;50.948;11.600;2023-11-19T08:07:12;5.37;;;2.30;;
18881;SDS011;9573;50.948;11.600;2023-11-19T08:09:42;7.87;;;2.80;;
18881;SDS011;9573;50.948;11.600;2023-11-19T08:12:10;8.87;;;3.00;;
18881;SDS011;9573;50.948;11.600;2023-11-19T08:14:39;11.00;;;2.63;;
18881;SDS011;9573;50.948;11.600;2023-11-19T08:17:06;9.63;;;2.83;;
18881;SDS011;9573;50.948;11.600;2023-11-19T08:19:33;18.07;;;5.30;;
18881;SDS011;9573;50.948;11.600;2023-11-19T08:22:00;10.00;;;3.53;;
18881;SDS011;9573;50.948;11.600;2023-11-19T08:24:29;13.80;;;4.20;;
18881;SDS011;9573;50.948;11.600;2023-11-19T08:26:56;11.67;;;3.43;;
18881;SDS011;9573;50.948;11.600;2023-11-19T08:29:23;8.30;;;2.90;;
18881;SDS011;9573;50.948;11.600;2023-11-19T08:31:50;7.47;;;2.87;;
18881;SDS011;9573;50.948;11.600;2023-11-19T08:34:17;4.90;;;2.20;;
18881;SDS011;9573;50.948;11.600;2023-11-19T08:36:49;14.23;;;4.43;;
18881;SDS011;9573;50.948;11.600;2023-11-19T08:39:18;6.97;;;2.70;;
18881;SDS011;9573;50.948;11.600;2023-11-19T08:41:49;2.57;;;2.10;;
18881;SDS011;9573;50.948;11.600;2023-11-19T08:44:16;9.43;;;3.50;;
18881;SDS011;9573;50.948;11.600;2023-11-19T08:46:47;6.57;;;2.20;;
18881;SDS011;9573;50.948;11.600;2023-11-19T08:49:15;10.13;;;3.73;;
18881;SDS011;9573;50.948;11.600;2023-11-19T08:51:42;8.87;;;2.87;;
18881;SDS011;9573;50.948;11.600;2023-11-19T08:54:10;7.17;;;2.70;;
18881;SDS011;9573;50.948;11.600;2023-11-19T08:56:39;9.63;;;2.90;;
18881;SDS011;9573;50.948;11.600;2023-11-19T08:59:07;8.03;;;2.70;;
18881;SDS011;9573;50.948;11.600;2023-11-19T09:01:37;8.63;;;3.00;;
18881;SDS011;9573;50.948;11.600;2023-11-19T09:04:05;7.70;;;1.70;;
18881;SDS011;9573;50.948;11.600;2023-11-19T09:06:32;5.00;;;1.90;;
18881;SDS011;9573;50.948;11.600;2023-11-19T09:09:01;4.80;;;1.40;;
18881;SDS011;9573;50.948;11.600;2023-11-19T09:11:30;3.40;;;1.27;;
18881;SDS011;9573;50.948;11.600;2023-11-19T09:13:57;5.73;;;1.00;;
18881;SDS011;9573;50.948;11.600;2023-11-19T09:16:26;4.10;;;1.17;;
18881;SDS011;9573;50.948;11.600;2023-11-19T09:18:53;2.20;;;1.10;;
18881;SDS011;9573;50.948;11.600;2023-11-19T09:21:20;3.40;;;1.23;;
18881;SDS011;9573;50.948;11.600;2023-11-19T09:23:47;3.80;;;0.90;;
18881;SDS011;9573;50.948;11.600;2023-11-19T09:26:14;1.33;;;1.00;;
18881;SDS011;9573;50.948;11.600;2023-11-19T09:28:41;1.77;;;0.90;;
18881;SDS011;9573;50.948;11.600;2023-11-19T09:31:15;2.17;;;1.17;;
18881;SDS011;9573;50.948;11.600;2023-11-19T09:33:44;4.10;;;1.07;;
18881;SDS011;9573;50.948;11.600;2023-11-19T09:36:11;3.67;;;1.20;;
18881;SDS011;9573;50.948;11.600;2023-11-19T09:38:39;1.27;;;1.00;;
18881;SDS011;9573;50.948;11.600;2023-11-19T09:41:07;7.93;;;1.30;;
18881;SDS011;9573;50.948;11.600;2023-11-19T09:43:37;3.03;;;1.20;;
18881;SDS011;9573;50.948;11.600;2023-11-19T09:46:06;5.90;;;1.40;;
18881;SDS011;9573;50.948;11.600;2023-11-19T09:48:37;5.80;;;1.40;;
18881;SDS011;9573;50.948;11.600;2023-11-19T09:51:09;5.77;;;1.60;;
18881;SDS011;9573;50.948;11.600;2023-11-19T09:53:37;5.63;;;1.60;;
18881;SDS011;9573;50.948;11.600;2023-11-19T09:56:05;11.10;;;2.00;;
18881;SDS011;9573;50.948;11.600;2023-11-19T09:58:35;10.97;;;2.30;;
18881;SDS011;9573;50.948;11.600;2023-11-19T10:01:05;10.30;;;1.90;;
18881;SDS011;9573;50.948;11.600;2023-11-19T10:03:35;10.73;;;2.40;;
18881;SDS011;9573;50.948;11.600;2023-11-19T10:06:04;10.10;;;2.23;;
18881;SDS011;9573;50.948;11.600;2023-11-19T10:08:36;17.90;;;2.73;;
18881;SDS011;9573;50.948;11.600;2023-11-19T10:11:05;13.50;;;2.53;;
18881;SDS011;9573;50.948;11.600;2023-11-19T10:13:33;8.47;;;1.80;;
18881;SDS011;9573;50.948;11.600;2023-11-19T10:16:04;12.40;;;1.67;;
18881;SDS011;9573;50.948;11.600;2023-11-19T10:18:34;11.60;;;2.00;;
18881;SDS011;9573;50.948;11.600;2023-11-19T10:21:03;10.87;;;2.03;;
18881;SDS011;9573;50.948;11.600;2023-11-19T10:26:25;12.73;;;2.33;;
18881;SDS011;9573;50.948;11.600;2023-11-19T10:28:54;12.40;;;2.30;;
18881;SDS011;9573;50.948;11.600;2023-11-19T10:31:23;14.10;;;2.20;;
18881;SDS011;9573;50.948;11.600;2023-11-19T10:33:51;12.07;;;2.40;;
18881;SDS011;9573;50.948;11.600;2023-11-19T10:36:19;12.20;;;2.00;;
18881;SDS011;9573;50.948;11.600;2023-11-19T10:38:51;8.90;;;2.27;;
18881;SDS011;9573;50.948;11.600;2023-11-19T10:41:27;10.27;;;2.00;;
18881;SDS011;9573;50.948;11.600;2023-11-19T10:43:55;13.67;;;2.40;;
18881;SDS011;9573;50.948;11.600;2023-11-19T10:46:22;12.93;;;2.77;;
18881;SDS011;9573;50.948;11.600;2023-11-19T10:49:02;4.00;;;1.43;;
18881;SDS011;9573;50.948;11.600;2023-11-19T10:51:31;8.47;;;2.20;;
18881;SDS011;9573;50.948;11.600;2023-11-19T10:54:00;8.87;;;2.17;;
18881;SDS011;9573;50.948;11.600;2023-11-19T10:56:32;15.53;;;2.43;;
18881;SDS011;9573;50.948;11.600;2023-11-19T10:59:00;15.73;;;2.03;;
18881;SDS011;9573;50.948;11.600;2023-11-19T11:01:37;8.13;;;2.00;;
18881;SDS011;9573;50.948;11.600;2023-11-19T11:04:11;11.20;;;2.07;;
18881;SDS011;9573;50.948;11.600;2023-11-19T11:06:42;10.13;;;2.13;;
18881;SDS011;9573;50.948;11.600;2023-11-19T11:09:09;15.47;;;2.67;;
18881;SDS011;9573;50.948;11.600;2023-11-19T11:11:39;11.53;;;2.40;;
18881;SDS011;9573;50.948;11.600;2023-11-19T11:14:09;14.30;;;2.20;;
18881;SDS011;9573;50.948;11.600;2023-11-19T11:16:42;15.03;;;2.30;;
18881;SDS011;9573;50.948;11.600;2023-11-19T11:19:12;10.00;;;2.10;;
18881;SDS011;9573;50.948;11.600;2023-11-19T11:21:42;10.93;;;2.57;;
18881;SDS011;9573;50.948;11.600;2023-11-19T11:24:30;9.10;;;2.40;;
18881;SDS011;9573;50.948;11.600;2023-11-19T11:27:24;8.53;;;1.97;;
18881;SDS011;9573;50.948;11.600;2023-11-19T11:30:25;14.80;;;2.50;;
18881;SDS011;9573;50.948;11.600;2023-11-19T11:33:04;8.03;;;1.97;;
18881;SDS011;9573;50.948;11.600;2023-11-19T11:35:52;14.50;;;2.50;;
18881;SDS011;9573;50.948;11.600;2023-11-19T11:38:28;14.13;;;2.23;;
18881;SDS011;9573;50.948;11.600;2023-11-19T11:43:47;8.90;;;2.07;;
18881;SDS011;9573;50.948;11.600;2023-11-19T11:49:27;9.53;;;2.20;;
18881;SDS011;9573;50.948;11.600;2023-11-19T11:51:59;13.43;;;2.47;;
18881;SDS011;9573;50.948;11.600;2023-11-19T11:54:32;17.87;;;2.63;;
18881;SDS011;9573;50.948;11.600;2023-11-19T11:57:02;12.33;;;2.53;;
18881;SDS011;9573;50.948;11.600;2023-11-19T11:59:43;16.03;;;2.67;;
18881;SDS011;9573;50.948;11.600;2023-11-19T12:02:15;12.73;;;2.43;;
18881;SDS011;9573;50.948;11.600;2023-11-19T12:04:47;16.40;;;2.50;;
18881;SDS011;9573;50.948;11.600;2023-11-19T12:07:18;14.30;;;2.53;;
18881;SDS011;9573;50.948;11.600;2023-11-19T12:09:48;11.87;;;2.30;;
18881;SDS011;9573;50.948;11.600;2023-11-19T12:12:19;15.37;;;2.50;;
18881;SDS011;9573;50.948;11.600;2023-11-19T12:15:03;12.47;;;2.37;;
18881;SDS011;9573;50.948;11.600;2023-11-19T12:17:36;9.23;;;2.37;;
18881;SDS011;9573;50.948;11.600;2023-11-19T12:20:09;15.57;;;2.43;;
18881;SDS011;9573;50.948;11.600;2023-11-19T12:22:37;15.90;;;2.97;;
18881;SDS011;9573;50.948;11.600;2023-11-19T12:25:06;12.37;;;2.20;;
18881;SDS011;9573;50.948;11.600;2023-11-19T12:27:35;16.43;;;2.63;;
18881;SDS011;9573;50.948;11.600;2023-11-19T12:30:04;12.87;;;2.47;;
18881;SDS011;9573;50.948;11.600;2023-11-19T12:32:38;10.57;;;2.37;;
18881;SDS011;9573;50.948;11.600;2023-11-19T12:35:07;12.70;;;2.20;;
18881;SDS011;9573;50.948;11.600;2023-11-19T12:37:40;10.87;;;2.20;;
18881;SDS011;9573;50.948;11.600;2023-11-19T12:40:14;18.57;;;2.40;;
18881;SDS011;9573;50.948;11.600;2023-11-19T12:42:44;10.70;;;2.10;;
18881;SDS011;9573;50.948;11.600;2023-11-19T12:45:12;16.60;;;2.57;;
18881;SDS011;9573;50.948;11.600;2023-11-19T12:47:41;14.40;;;2.50;;
18881;SDS011;9573;50.948;11.600;2023-11-19T12:50:09;13.03;;;2.47;;
18881;SDS011;9573;50.948;11.600;2023-11-19T12:52:37;9.13;;;1.87;;
18881;SDS011;9573;50.948;11.600;2023-11-19T12:55:05;19.13;;;2.60;;
18881;SDS011;9573;50.948;11.600;2023-11-19T12:57:50;12.87;;;2.80;;
18881;SDS011;9573;50.948;11.600;2023-11-19T13:00:21;9.67;;;1.77;;
18881;SDS011;9573;50.948;11.600;2023-11-19T13:02:52;15.97;;;2.60;;
18881;SDS011;9573;50.948;11.600;2023-11-19T13:05:22;14.83;;;2.70;;
18881;SDS011;9573;50.948;11.600;2023-11-19T13:07:57;12.63;;;2.30;;
18881;SDS011;9573;50.948;11.600;2023-11-19T13:10:28;12.40;;;2.03;;
18881;SDS011;9573;50.948;11.600;2023-11-19T13:13:02;12.33;;;2.27;;
18881;SDS011;9573;50.948;11.600;2023-11-19T13:15:32;12.90;;;2.17;;
18881;SDS011;9573;50.948;11.600;2023-11-19T13:18:00;9.43;;;2.00;;
18881;SDS011;9573;50.948;11.600;2023-11-19T13:20:28;13.17;;;2.57;;
18881;SDS011;9573;50.948;11.600;2023-11-19T13:22:57;14.10;;;2.23;;
18881;SDS011;9573;50.948;11.600;2023-11-19T13:25:25;8.23;;;1.90;;
18881;SDS011;9573;50.948;11.600;2023-11-19T13:27:52;14.40;;;2.30;;
18881;SDS011;9573;50.948;11.600;2023-11-19T13:30:20;13.53;;;2.27;;
18881;SDS011;9573;50.948;11.600;2023-11-19T13:32:48;11.83;;;2.13;;
18881;SDS011;9573;50.948;11.600;2023-11-19T13:35:16;23.27;;;2.80;;
18881;SDS011;9573;50.948;11.600;2023-11-19T13:37:44;12.67;;;1.90;;
18881;SDS011;9573;50.948;11.600;2023-11-19T13:40:11;12.83;;;2.33;;
18881;SDS011;9573;50.948;11.600;2023-11-19T13:42:40;14.63;;;2.27;;
18881;SDS011;9573;50.948;11.600;2023-11-19T13:45:08;15.70;;;2.33;;
18881;SDS011;9573;50.948;11.600;2023-11-19T13:47:37;17.50;;;2.37;;
18881;SDS011;9573;50.948;11.600;2023-11-19T13:50:08;14.03;;;2.20;;
18881;SDS011;9573;50.948;11.600;2023-11-19T13:52:36;6.17;;;1.70;;
18881;SDS011;9573;50.948;11.600;2023-11-19T13:55:05;15.50;;;2.40;;
18881;SDS011;9573;50.948;11.600;2023-11-19T13:57:33;14.40;;;2.30;;
18881;SDS011;9573;50.948;11.600;2023-11-19T14:00:01;16.70;;;2.47;;
18881;SDS011;9573;50.948;11.600;2023-11-19T14:02:30;12.40;;;2.03;;
18881;SDS011;9573;50.948;11.600;2023-11-19T14:04:57;17.20;;;2.80;;
18881;SDS011;9573;50.948;11.600;2023-11-19T14:07:26;13.30;;;2.20;;
18881;SDS011;9573;50.948;11.600;2023-11-19T14:09:54;16.80;;;3.17;;
18881;SDS011;9573;50.948;11.600;2023-11-19T14:12:21;13.07;;;2.37;;
18881;SDS011;9573;50.948;11.600;2023-11-19T14:14:48;12.93;;;2.47;;
18881;SDS011;9573;50.948;11.600;2023-11-19T14:17:15;23.47;;;2.70;;
18881;SDS011;9573;50.948;11.600;2023-11-19T14:19:43;17.00;;;2.43;;
18881;SDS011;9573;50.948;11.600;2023-11-19T14:22:10;15.60;;;2.60;;
18881;SDS011;9573;50.948;11.600;2023-11-19T14:24:39;15.87;;;2.40;;
18881;SDS011;9573;50.948;11.600;2023-11-19T14:27:07;19.30;;;3.13;;
18881;SDS011;9573;50.948;11.600;2023-11-19T14:29:35;15.97;;;2.40;;
18881;SDS011;9573;50.948;11.600;2023-11-19T14:32:02;18.60;;;2.90;;
18881;SDS011;9573;50.948;11.600;2023-11-19T14:34:30;16.17;;;2.60;;
18881;SDS011;9573;50.948;11.600;2023-11-19T14:36:58;12.97;;;2.00;;
18881;SDS011;9573;50.948;11.600;2023-11-19T14:39:25;12.87;;;3.00;;
18881;SDS011;9573;50.948;11.600;2023-11-19T14:41:55;19.47;;;2.70;;
18881;SDS011;9573;50.948;11.600;2023-11-19T14:44:26;15.63;;;2.77;;
18881;SDS011;9573;50.948;11.600;2023-11-19T14:46:54;14.50;;;2.33;;
18881;SDS011;9573;50.948;11.600;2023-11-19T14:49:21;13.37;;;2.03;;
18881;SDS011;9573;50.948;11.600;2023-11-19T14:51:49;17.20;;;2.70;;
18881;SDS011;9573;50.948;11.600;2023-11-19T14:54:16;20.40;;;2.90;;
18881;SDS011;9573;50.948;11.600;2023-11-19T14:56:43;18.00;;;2.83;;
18881;SDS011;9573;50.948;11.600;2023-11-19T14:59:11;16.00;;;3.07;;
18881;SDS011;9573;50.948;11.600;2023-11-19T15:01:38;20.00;;;3.33;;